createdAt,value
2023-01-12T00:01:12.016Z,58.40
2023-01-12T00:03:40.079Z,58.40
2023-01-12T00:06:12.761Z,58.40
2023-01-12T00:08:41.104Z,58.50
2023-01-12T00:11:09.302Z,58.50
2023-01-12T00:13:37.176Z,58.50
2023-01-12T00:16:26.095Z,58.40
2023-01-12T00:18:54.366Z,58.40
2023-01-12T00:21:23.606Z,58.50
2023-01-12T00:23:51.508Z,58.50
2023-01-12T00:26:19.376Z,58.50
2023-01-12T00:28:47.542Z,58.50
2023-01-12T00:31:15.548Z,58.60
2023-01-12T00:33:43.446Z,58.60
2023-01-12T00:36:14.005Z,58.60
2023-01-12T00:38:43.474Z,58.70
2023-01-12T00:41:33.530Z,58.70
2023-01-12T00:44:19.467Z,58.60
2023-01-12T00:46:47.732Z,58.70
2023-01-12T00:49:15.807Z,58.70
2023-01-12T00:51:43.796Z,58.70
2023-01-12T00:54:13.209Z,58.80
2023-01-12T00:56:41.297Z,58.90
2023-01-12T00:59:09.234Z,59.00
2023-01-12T01:01:37.339Z,58.90
2023-01-12T01:04:05.749Z,59.10
2023-01-12T01:06:33.587Z,59.10
2023-01-12T01:09:01.699Z,59.40
2023-01-12T01:11:31.136Z,59.00
2023-01-12T01:13:59.350Z,59.10
2023-01-12T01:16:27.472Z,59.10
2023-01-12T01:18:55.401Z,59.10
2023-01-12T01:21:23.328Z,59.00
2023-01-12T01:23:51.382Z,59.10
2023-01-12T01:26:22.825Z,59.10
2023-01-12T01:28:53.100Z,59.10
2023-01-12T01:31:23.504Z,59.20
2023-01-12T01:33:51.872Z,59.30
2023-01-12T01:36:20.993Z,59.20
2023-01-12T01:38:50.245Z,59.30
2023-01-12T01:41:22.544Z,59.30
2023-01-12T01:43:58.613Z,59.30
2023-01-12T01:46:43.053Z,59.30
2023-01-12T01:49:27.578Z,59.30
2023-01-12T01:52:00.435Z,59.30
2023-01-12T01:54:34.680Z,59.20
2023-01-12T01:57:03.062Z,59.20
2023-01-12T01:59:35.714Z,59.40
2023-01-12T02:02:04.373Z,59.40
2023-01-12T02:04:33.089Z,59.30
2023-01-12T02:07:03.383Z,59.20
2023-01-12T02:09:31.758Z,59.20
2023-01-12T02:12:17.808Z,59.20
2023-01-12T02:15:07.438Z,59.30
2023-01-12T02:17:48.888Z,59.20
2023-01-12T02:20:37.035Z,59.30
2023-01-12T02:23:41.158Z,59.30
2023-01-12T02:26:48.661Z,59.40
2023-01-12T02:29:43.079Z,59.30
2023-01-12T02:32:20.803Z,59.20
2023-01-12T02:34:59.636Z,59.20
2023-01-12T02:37:35.405Z,59.10
2023-01-12T02:40:08.439Z,59.10
2023-01-12T02:42:41.742Z,59.10
2023-01-12T02:45:24.979Z,59.10
2023-01-12T02:47:58.478Z,59.10
2023-01-12T02:50:33.340Z,59.10
2023-01-12T02:53:07.394Z,59.20
2023-01-12T02:55:36.371Z,59.20
2023-01-12T02:58:07.343Z,59.20
2023-01-12T03:00:38.795Z,59.20
2023-01-12T03:03:08.443Z,59.10
2023-01-12T03:05:40.037Z,59.20
2023-01-12T03:08:12.808Z,59.20
2023-01-12T03:10:59.016Z,59.20
2023-01-12T03:13:29.546Z,59.30
2023-01-12T03:15:58.986Z,59.20
2023-01-12T03:18:33.921Z,59.20
2023-01-12T03:21:06.192Z,59.30
2023-01-12T03:23:41.335Z,59.30
2023-01-12T03:26:13.426Z,59.40
2023-01-12T03:28:44.791Z,59.30
2023-01-12T03:31:15.447Z,59.40
2023-01-12T03:33:46.712Z,59.30
2023-01-12T03:36:24.450Z,59.40
2023-01-12T03:39:02.252Z,59.50
2023-01-12T03:41:39.333Z,59.50
2023-01-12T03:44:11.913Z,59.50
2023-01-12T03:46:44.116Z,59.70
2023-01-12T03:49:19.353Z,59.50
2023-01-12T03:51:49.927Z,59.50
2023-01-12T03:54:20.220Z,59.60
2023-01-12T03:56:49.820Z,59.60
2023-01-12T03:59:17.908Z,59.50
2023-01-12T04:01:48.160Z,59.50
2023-01-12T04:04:17.565Z,59.50
2023-01-12T04:06:45.449Z,59.50
2023-01-12T04:09:13.461Z,59.70
2023-01-12T04:11:58.762Z,59.60
2023-01-12T04:14:26.850Z,59.60
2023-01-12T04:16:54.918Z,59.50
2023-01-12T04:19:24.358Z,59.50
2023-01-12T04:22:10.325Z,59.60
2023-01-12T04:24:38.343Z,59.80
2023-01-12T04:27:06.501Z,59.60
2023-01-12T04:29:34.400Z,59.70
2023-01-12T04:32:02.701Z,59.70
2023-01-12T04:34:32.092Z,59.70
2023-01-12T04:37:02.024Z,59.80
2023-01-12T04:39:30.181Z,59.90
2023-01-12T04:41:58.380Z,59.90
2023-01-12T04:44:26.468Z,60.00
2023-01-12T04:46:54.364Z,59.90
2023-01-12T04:49:22.510Z,59.90
2023-01-12T04:51:52.648Z,59.90
2023-01-12T04:54:21.203Z,60.00
2023-01-12T04:56:49.308Z,60.10
2023-01-12T04:59:17.386Z,60.00
2023-01-12T05:01:45.374Z,59.90
2023-01-12T05:04:14.940Z,59.90
2023-01-12T05:06:42.862Z,59.90
2023-01-12T05:09:35.294Z,60.00
2023-01-12T05:12:03.197Z,60.00
2023-01-12T05:14:31.340Z,60.00
2023-01-12T05:16:59.696Z,60.00
2023-01-12T05:19:27.770Z,60.10
2023-01-12T05:21:55.663Z,59.90
2023-01-12T05:24:25.058Z,59.90
2023-01-12T05:26:53.023Z,59.90
2023-01-12T05:29:21.218Z,59.90
2023-01-12T05:31:50.000Z,59.90
2023-01-12T05:34:19.453Z,59.90
2023-01-12T05:36:47.559Z,59.90
2023-01-12T05:39:16.104Z,60.00
2023-01-12T05:41:59.285Z,59.90
2023-01-12T05:44:27.337Z,59.90
2023-01-12T05:46:55.186Z,59.80
2023-01-12T05:49:23.103Z,60.10
2023-01-12T05:51:51.500Z,60.00
2023-01-12T05:54:19.479Z,59.90
2023-01-12T05:56:49.934Z,60.00
2023-01-12T05:59:18.315Z,60.00
2023-01-12T06:01:46.261Z,59.90
2023-01-12T06:04:14.157Z,60.10
2023-01-12T06:06:42.355Z,60.30
2023-01-12T06:09:10.499Z,60.10
2023-01-12T06:11:55.979Z,60.10
2023-01-12T06:14:25.212Z,60.10
2023-01-12T06:16:53.242Z,60.10
2023-01-12T06:19:21.152Z,60.20
2023-01-12T06:21:49.298Z,60.50
2023-01-12T06:24:17.151Z,60.40
2023-01-12T06:26:45.544Z,60.60
2023-01-12T06:29:13.705Z,60.50
2023-01-12T06:31:44.028Z,60.60
2023-01-12T06:34:12.047Z,61.40
2023-01-12T06:36:40.589Z,60.50
2023-01-12T06:39:08.514Z,60.70
2023-01-12T06:41:53.769Z,60.80
2023-01-12T06:44:21.836Z,60.90
2023-01-12T06:46:51.491Z,60.90
2023-01-12T06:49:19.722Z,61.00
2023-01-12T06:51:49.157Z,61.10
2023-01-12T06:54:19.986Z,60.90
2023-01-12T06:56:48.104Z,60.70
2023-01-12T06:59:16.017Z,60.90
2023-01-12T07:01:44.005Z,61.10
2023-01-12T07:04:13.300Z,60.90
2023-01-12T07:06:41.433Z,60.90
2023-01-12T07:09:09.295Z,61.10
2023-01-12T07:11:37.167Z,61.00
2023-01-12T07:14:06.647Z,61.10
2023-01-12T07:16:35.874Z,61.00
2023-01-12T07:19:04.022Z,61.00
2023-01-12T07:21:33.407Z,61.10
2023-01-12T07:24:01.327Z,61.10
2023-01-12T07:26:29.445Z,61.20
2023-01-12T07:28:57.430Z,61.30
2023-01-12T07:31:25.800Z,61.30
2023-01-12T07:33:54.378Z,61.30
2023-01-12T07:36:22.889Z,61.40
2023-01-12T07:38:52.151Z,61.40
2023-01-12T07:41:34.331Z,61.40
2023-01-12T07:44:09.683Z,61.40
2023-01-12T07:46:37.998Z,61.50
2023-01-12T07:49:05.971Z,61.30
2023-01-12T07:51:33.885Z,61.20
2023-01-12T07:54:03.372Z,61.30
2023-01-12T07:56:31.225Z,61.40
2023-01-12T07:58:59.353Z,61.40
2023-01-12T08:01:27.496Z,61.30
2023-01-12T08:03:55.773Z,61.50
2023-01-12T08:06:23.647Z,61.40
2023-01-12T08:08:53.351Z,61.40
2023-01-12T08:11:23.653Z,61.50
2023-01-12T08:13:55.238Z,61.90
2023-01-12T08:16:28.702Z,61.80
2023-01-12T08:19:01.460Z,61.50
2023-01-12T08:21:34.048Z,62.30
2023-01-12T08:24:05.512Z,61.70
2023-01-12T08:26:38.862Z,61.90
2023-01-12T08:29:13.179Z,61.90
2023-01-12T08:31:42.055Z,62.10
2023-01-12T08:34:10.779Z,61.90
2023-01-12T08:36:40.677Z,61.80
2023-01-12T08:39:08.714Z,61.90
2023-01-12T08:41:38.073Z,62.00
2023-01-12T08:44:09.663Z,62.20
2023-01-12T08:46:39.439Z,62.20
2023-01-12T08:49:11.293Z,62.30
2023-01-12T08:51:40.390Z,62.40
2023-01-12T08:54:09.889Z,63.10
2023-01-12T08:56:39.804Z,62.60
2023-01-12T08:59:08.250Z,62.70
2023-01-12T09:01:36.810Z,62.50
2023-01-12T09:04:05.027Z,62.50
2023-01-12T09:06:36.028Z,62.60
2023-01-12T09:09:06.376Z,62.80
2023-01-12T09:11:35.187Z,62.80
2023-01-12T09:14:04.492Z,62.60
2023-01-12T09:16:34.192Z,62.60
2023-01-12T09:19:02.450Z,62.60
2023-01-12T09:21:31.728Z,62.50
2023-01-12T09:23:59.938Z,62.60
2023-01-12T09:26:31.977Z,62.50
2023-01-12T09:29:00.748Z,62.60
2023-01-12T09:31:32.306Z,62.50
2023-01-12T09:34:00.922Z,62.60
2023-01-12T09:36:30.654Z,62.60
2023-01-12T09:38:59.442Z,62.50
2023-01-12T09:41:47.184Z,62.50
2023-01-12T09:44:37.964Z,62.50
2023-01-12T09:47:16.780Z,62.60
2023-01-12T09:49:53.614Z,62.70
2023-01-12T09:52:27.179Z,62.60
2023-01-12T09:54:55.198Z,62.60
2023-01-12T09:58:00.825Z,62.60
2023-01-12T10:00:29.143Z,62.80
2023-01-12T10:03:12.980Z,62.70
2023-01-12T10:05:46.172Z,62.90
2023-01-12T10:08:19.071Z,62.90
2023-01-12T10:11:01.840Z,63.00
2023-01-12T10:13:44.880Z,63.20
2023-01-12T10:16:21.615Z,63.10
2023-01-12T10:18:55.305Z,62.90
2023-01-12T10:21:24.881Z,63.10
2023-01-12T10:23:55.334Z,63.10
2023-01-12T10:26:24.946Z,63.10
2023-01-12T10:28:56.327Z,63.00
2023-01-12T10:31:25.915Z,63.10
2023-01-12T10:34:06.842Z,63.10
2023-01-12T10:36:36.515Z,63.10
2023-01-12T10:39:05.663Z,62.90
2023-01-12T10:41:35.254Z,62.90
2023-01-12T10:44:17.507Z,62.90
2023-01-12T10:46:59.145Z,63.00
2023-01-12T10:49:28.622Z,62.90
2023-01-12T10:51:59.983Z,62.80
2023-01-12T10:54:31.497Z,62.90
2023-01-12T10:57:04.035Z,62.90
2023-01-12T10:59:34.890Z,62.90
2023-01-12T11:02:26.252Z,63.00
2023-01-12T11:04:56.147Z,63.20
2023-01-12T11:07:26.377Z,63.00
2023-01-12T11:09:55.545Z,63.00
2023-01-12T11:12:29.770Z,63.20
2023-01-12T11:15:01.580Z,63.20
2023-01-12T11:17:44.820Z,63.50
2023-01-12T11:20:22.271Z,64.10
2023-01-12T11:22:54.717Z,63.30
2023-01-12T11:25:24.314Z,63.20
2023-01-12T11:27:56.623Z,63.30
2023-01-12T11:30:30.678Z,63.40
2023-01-12T11:33:04.251Z,63.50
2023-01-12T11:35:38.473Z,63.40
2023-01-12T11:38:13.310Z,63.40
2023-01-12T11:40:42.468Z,63.50
2023-01-12T11:43:42.378Z,63.40
2023-01-12T11:46:20.004Z,63.60
2023-01-12T11:48:54.370Z,63.50
2023-01-12T11:51:23.911Z,63.50
2023-01-12T11:53:52.006Z,63.20
2023-01-12T11:56:40.224Z,63.20
2023-01-12T11:59:14.968Z,63.40
2023-01-12T12:01:51.897Z,63.40
2023-01-12T12:04:37.223Z,63.40
2023-01-12T12:07:27.299Z,63.50
2023-01-12T12:10:06.440Z,63.40
2023-01-12T12:12:47.259Z,63.40
2023-01-12T12:15:29.082Z,63.50
2023-01-12T12:18:10.386Z,63.50
2023-01-12T12:20:44.360Z,63.40
2023-01-12T12:23:24.301Z,63.50
2023-01-12T12:26:02.273Z,63.60
2023-01-12T12:28:57.865Z,63.50
2023-01-12T12:31:41.215Z,63.40
2023-01-12T12:34:32.665Z,63.40
2023-01-12T12:37:08.694Z,63.20
2023-01-12T12:39:56.588Z,63.10
2023-01-12T12:43:08.346Z,62.90
2023-01-12T12:45:46.157Z,63.10
2023-01-12T12:48:18.775Z,63.10
2023-01-12T12:50:56.495Z,62.90
2023-01-12T12:53:28.270Z,62.90
2023-01-12T12:56:00.683Z,62.90
2023-01-12T12:58:47.156Z,63.00
2023-01-12T13:01:58.310Z,63.20
2023-01-12T13:05:04.889Z,63.00
2023-01-12T13:07:37.670Z,62.90
2023-01-12T13:10:19.701Z,63.60
2023-01-12T13:13:02.515Z,62.90
2023-01-12T13:15:36.684Z,62.90
2023-01-12T13:18:07.065Z,62.90
2023-01-12T13:20:55.652Z,62.90
2023-01-12T13:23:52.232Z,63.00
2023-01-12T13:26:42.711Z,62.90
2023-01-12T13:29:50.291Z,62.80
2023-01-12T13:32:36.998Z,62.80
2023-01-12T13:35:28.547Z,62.90
2023-01-12T13:38:04.414Z,62.80
2023-01-12T13:40:33.649Z,63.00
2023-01-12T13:43:19.513Z,63.00
2023-01-12T13:45:55.586Z,62.90
2023-01-12T13:48:25.852Z,62.90
2023-01-12T13:50:59.419Z,62.90
2023-01-12T13:53:29.283Z,63.00
2023-01-12T13:56:00.126Z,63.10
2023-01-12T13:58:29.309Z,63.00
2023-01-12T14:00:59.942Z,63.10
2023-01-12T14:03:49.742Z,63.20
2023-01-12T14:06:25.331Z,63.10
2023-01-12T14:09:03.461Z,63.10
2023-01-12T14:12:16.537Z,63.30
2023-01-12T14:15:26.549Z,63.60
2023-01-12T14:18:04.038Z,63.50
2023-01-12T14:20:42.817Z,63.60
2023-01-12T14:23:21.048Z,63.50
2023-01-12T14:26:08.387Z,63.50
2023-01-12T14:28:36.919Z,63.60
2023-01-12T14:31:05.956Z,63.50
2023-01-12T14:33:36.219Z,63.40
2023-01-12T14:36:08.167Z,63.40
2023-01-12T14:38:37.363Z,63.40
2023-01-12T14:41:28.349Z,63.60
2023-01-12T14:44:14.500Z,63.60
2023-01-12T14:46:53.498Z,63.60
2023-01-12T14:49:23.757Z,63.50
2023-01-12T14:51:56.928Z,63.50
2023-01-12T14:54:30.523Z,63.30
2023-01-12T14:57:01.249Z,63.40
2023-01-12T14:59:31.609Z,63.20
2023-01-12T15:02:29.851Z,63.20
2023-01-12T15:05:01.387Z,63.10
2023-01-12T15:07:35.024Z,63.10
2023-01-12T15:10:05.845Z,63.20
2023-01-12T15:12:48.641Z,63.20
2023-01-12T15:15:18.944Z,63.30
2023-01-12T15:18:04.869Z,63.20
2023-01-12T15:20:54.963Z,63.30
2023-01-12T15:23:47.508Z,63.40
2023-01-12T15:26:15.529Z,63.40
2023-01-12T15:28:44.662Z,63.30
2023-01-12T15:31:21.471Z,63.30
2023-01-12T15:33:49.623Z,63.50
2023-01-12T15:36:17.678Z,63.40
2023-01-12T15:38:47.030Z,63.50
2023-01-12T15:41:39.140Z,63.40
2023-01-12T15:44:09.410Z,63.60
2023-01-12T15:46:37.562Z,63.50
2023-01-12T15:49:05.691Z,63.40
2023-01-12T15:51:34.507Z,63.50
2023-01-12T15:54:04.285Z,63.40
2023-01-12T15:56:32.296Z,63.40
2023-01-12T15:59:00.324Z,63.40
2023-01-12T16:01:36.988Z,63.30
2023-01-12T16:04:40.543Z,63.30
2023-01-12T16:06:55.520Z,63.40
2023-01-12T16:09:25.023Z,63.30
2023-01-12T16:11:52.927Z,63.30
2023-01-12T16:14:20.955Z,63.30
2023-01-12T16:16:48.965Z,63.40
2023-01-12T16:19:22.475Z,63.40
2023-01-12T16:21:50.692Z,63.30
2023-01-12T16:24:18.702Z,63.30
2023-01-12T16:26:48.720Z,63.20
2023-01-12T16:29:17.786Z,63.40
2023-01-12T16:31:46.279Z,63.30
2023-01-12T16:34:18.354Z,63.30
2023-01-12T16:36:46.341Z,63.20
2023-01-12T16:39:14.352Z,63.20
2023-01-12T16:41:42.370Z,63.30
2023-01-12T16:44:12.461Z,63.10
2023-01-12T16:46:40.805Z,63.10
2023-01-12T16:49:08.732Z,63.20
2023-01-12T16:51:36.909Z,63.20
2023-01-12T16:54:05.164Z,63.10
2023-01-12T16:56:33.091Z,63.10
2023-01-12T16:59:01.090Z,63.00
2023-01-12T17:01:30.750Z,63.10
2023-01-12T17:03:58.916Z,63.10
2023-01-12T17:06:29.511Z,63.00
2023-01-12T17:09:01.824Z,63.00
2023-01-12T17:11:30.777Z,62.90
2023-01-12T17:13:59.233Z,62.90
2023-01-12T17:16:29.449Z,62.90
2023-01-12T17:18:58.813Z,63.40
2023-01-12T17:21:27.253Z,62.80
2023-01-12T17:23:55.546Z,62.90
2023-01-12T17:26:24.161Z,62.80
2023-01-12T17:28:52.110Z,62.60
2023-01-12T17:31:21.093Z,62.50
2023-01-12T17:33:50.017Z,62.70
2023-01-12T17:36:20.025Z,62.60
2023-01-12T17:38:47.890Z,62.70
2023-01-12T17:41:31.891Z,62.50
2023-01-12T17:44:01.425Z,62.60
2023-01-12T17:46:29.985Z,62.50
2023-01-12T17:48:58.748Z,62.50
2023-01-12T17:51:28.643Z,62.50
2023-01-12T17:53:57.146Z,62.40
2023-01-12T17:56:25.538Z,62.50
2023-01-12T17:58:54.744Z,62.50
2023-01-12T18:01:24.529Z,62.50
2023-01-12T18:03:52.531Z,62.50
2023-01-12T18:06:26.461Z,62.50
2023-01-12T18:08:59.307Z,62.50
2023-01-12T18:11:28.072Z,62.50
2023-01-12T18:13:56.825Z,62.60
2023-01-12T18:16:25.309Z,62.30
2023-01-12T18:18:54.139Z,62.40
2023-01-12T18:21:25.028Z,62.30
2023-01-12T18:23:54.041Z,62.50
2023-01-12T18:26:25.861Z,62.30
2023-01-12T18:28:54.668Z,62.40
2023-01-12T18:31:24.896Z,62.30
2023-01-12T18:33:56.938Z,62.40
2023-01-12T18:36:26.554Z,62.30
2023-01-12T18:38:55.983Z,62.40
2023-01-12T18:41:43.119Z,62.40
2023-01-12T18:44:11.408Z,62.50
2023-01-12T18:47:01.485Z,62.50
2023-01-12T18:49:31.191Z,62.60
2023-01-12T18:52:17.384Z,62.70
2023-01-12T18:54:47.330Z,62.70
2023-01-12T18:57:18.544Z,62.80
2023-01-12T18:59:47.124Z,62.90
2023-01-12T19:02:16.755Z,62.80
2023-01-12T19:05:04.395Z,63.10
2023-01-12T19:07:39.157Z,63.10
2023-01-12T19:10:08.278Z,63.70
2023-01-12T19:12:37.628Z,63.00
2023-01-12T19:15:23.979Z,63.00
2023-01-12T19:17:51.842Z,63.10
2023-01-12T19:20:21.079Z,63.10
2023-01-12T19:23:06.288Z,63.10
2023-01-12T19:25:52.245Z,63.20
2023-01-12T19:28:35.591Z,63.20
2023-01-12T19:31:05.750Z,63.10
2023-01-12T19:33:34.996Z,63.20
2023-01-12T19:36:07.683Z,63.30
2023-01-12T19:38:35.889Z,63.40
2023-01-12T19:41:12.053Z,63.40
2023-01-12T19:43:44.874Z,63.40
2023-01-12T19:46:13.438Z,63.40
2023-01-12T19:48:41.786Z,63.50
2023-01-12T19:51:11.427Z,63.40
2023-01-12T19:53:40.375Z,63.40
2023-01-12T19:56:10.285Z,63.40
2023-01-12T19:58:38.499Z,63.50
2023-01-12T20:01:08.157Z,63.40
2023-01-12T20:03:39.931Z,63.20
2023-01-12T20:06:09.032Z,63.30
2023-01-12T20:08:37.207Z,63.30
2023-01-12T20:11:06.010Z,63.20
2023-01-12T20:13:34.926Z,63.30
2023-01-12T20:16:08.120Z,63.40
2023-01-12T20:18:36.199Z,63.50
2023-01-12T20:21:09.129Z,63.40
2023-01-12T20:23:37.353Z,63.60
2023-01-12T20:26:07.590Z,63.40
2023-01-12T20:28:35.864Z,63.50
2023-01-12T20:31:11.523Z,63.50
2023-01-12T20:33:40.126Z,63.60
2023-01-12T20:36:11.711Z,63.60
2023-01-12T20:38:41.655Z,63.60
2023-01-12T20:41:10.000Z,63.60
2023-01-12T20:43:38.247Z,63.60
2023-01-12T20:46:08.484Z,63.60
2023-01-12T20:48:37.915Z,63.70
2023-01-12T20:51:08.455Z,63.60
2023-01-12T20:53:36.515Z,63.70
2023-01-12T20:56:04.606Z,63.70
2023-01-12T20:58:32.779Z,63.60
2023-01-12T21:01:00.873Z,63.80
2023-01-12T21:03:29.181Z,63.80
2023-01-12T21:05:59.930Z,63.90
2023-01-12T21:08:28.236Z,63.80
2023-01-12T21:10:56.210Z,63.70
2023-01-12T21:13:24.124Z,63.80
2023-01-12T21:15:58.404Z,63.80
2023-01-12T21:18:26.338Z,63.90
2023-01-12T21:20:54.446Z,63.90
2023-01-12T21:23:24.660Z,63.80
2023-01-12T21:25:52.885Z,63.80
2023-01-12T21:28:20.935Z,63.90
2023-01-12T21:30:48.832Z,63.90
2023-01-12T21:33:17.650Z,63.90
2023-01-12T21:35:45.644Z,64.00
2023-01-12T21:38:14.073Z,63.80
2023-01-12T21:40:43.310Z,63.90
2023-01-12T21:43:12.474Z,63.90
2023-01-12T21:45:43.177Z,63.90
2023-01-12T21:48:12.932Z,63.90
2023-01-12T21:50:41.945Z,64.00
2023-01-12T21:53:13.192Z,63.90
2023-01-12T21:55:41.455Z,63.90
2023-01-12T21:58:10.658Z,63.80
2023-01-12T22:00:38.955Z,63.90
2023-01-12T22:03:06.878Z,63.90
2023-01-12T22:05:35.728Z,63.90
2023-01-12T22:08:04.155Z,63.90
2023-01-12T22:10:32.214Z,63.90
2023-01-12T22:13:02.694Z,63.90
2023-01-12T22:15:32.916Z,64.00
2023-01-12T22:18:00.881Z,64.00
2023-01-12T22:20:29.206Z,64.10
2023-01-12T22:22:57.371Z,64.10
2023-01-12T22:25:25.975Z,64.10
2023-01-12T22:27:54.313Z,64.10
2023-01-12T22:30:25.122Z,64.20
2023-01-12T22:32:56.199Z,64.10
2023-01-12T22:35:26.491Z,64.10
2023-01-12T22:37:55.675Z,64.10
2023-01-12T22:40:23.593Z,64.10
2023-01-12T22:43:08.904Z,64.10
2023-01-12T22:45:37.739Z,64.10
2023-01-12T22:48:07.924Z,64.10
2023-01-12T22:50:35.975Z,64.10
2023-01-12T22:53:03.881Z,64.10
2023-01-12T22:55:32.018Z,64.10
2023-01-12T22:58:00.248Z,64.10
2023-01-12T23:00:28.320Z,64.00
2023-01-12T23:03:02.673Z,63.90
2023-01-12T23:05:36.002Z,64.10
2023-01-12T23:08:05.055Z,64.20
2023-01-12T23:10:33.772Z,64.20
2023-01-12T23:13:17.859Z,64.30
2023-01-12T23:15:52.316Z,64.50
2023-01-12T23:18:23.540Z,64.40
2023-01-12T23:20:52.799Z,64.30
2023-01-12T23:23:20.709Z,64.40
2023-01-12T23:25:49.002Z,64.30
2023-01-12T23:28:17.021Z,64.30
2023-01-12T23:30:45.449Z,64.40
2023-01-12T23:33:13.522Z,64.40
2023-01-12T23:35:42.694Z,64.40
2023-01-12T23:38:16.152Z,64.60
2023-01-12T23:40:44.066Z,64.60
2023-01-12T23:43:12.258Z,64.50
2023-01-12T23:45:40.219Z,64.50
2023-01-12T23:48:08.649Z,64.50
2023-01-12T23:50:36.813Z,64.60
2023-01-12T23:53:04.800Z,64.50
2023-01-12T23:55:34.051Z,64.60
2023-01-12T23:58:02.297Z,64.60
